createdAt,value
2024-01-25T00:00:49.229Z,115.20
2024-01-25T00:01:49.289Z,116.35
2024-01-25T00:02:49.278Z,114.03
2024-01-25T00:03:49.406Z,115.79
2024-01-25T00:04:49.547Z,116.42
2024-01-25T00:05:49.549Z,118.23
2024-01-25T00:06:49.518Z,118.76
2024-01-25T00:07:49.691Z,115.56
2024-01-25T00:08:49.579Z,116.94
2024-01-25T00:09:49.791Z,117.20
2024-01-25T00:10:49.686Z,116.95
2024-01-25T00:11:49.694Z,117.03
2024-01-25T00:12:49.745Z,115.91
2024-01-25T00:13:49.746Z,117.08
2024-01-25T00:14:49.815Z,114.32
2024-01-25T00:15:49.851Z,120.27
2024-01-25T00:16:49.884Z,116.64
2024-01-25T00:17:49.917Z,116.50
2024-01-25T00:18:50.046Z,116.58
2024-01-25T00:19:50.036Z,115.60
2024-01-25T00:20:49.988Z,115.29
2024-01-25T00:21:50.046Z,115.78
2024-01-25T00:22:50.051Z,117.12
2024-01-25T00:23:50.075Z,114.56
2024-01-25T00:24:50.184Z,117.08
2024-01-25T00:25:50.125Z,116.35
2024-01-25T00:26:50.140Z,115.91
2024-01-25T00:27:50.269Z,114.35
2024-01-25T00:28:50.275Z,113.31
2024-01-25T00:29:50.326Z,114.78
2024-01-25T00:30:50.402Z,116.79
2024-01-25T00:31:50.433Z,117.59
2024-01-25T00:32:50.598Z,116.40
2024-01-25T00:33:50.665Z,117.30
2024-01-25T00:34:50.627Z,116.24
2024-01-25T00:35:50.573Z,114.94
2024-01-25T00:36:50.653Z,115.09
2024-01-25T00:37:50.684Z,114.24
2024-01-25T00:38:50.718Z,114.94
2024-01-25T00:39:50.929Z,115.67
2024-01-25T00:40:51.743Z,115.47
2024-01-25T00:41:50.925Z,116.27
2024-01-25T00:42:50.989Z,117.02
2024-01-25T00:43:50.976Z,116.37
2024-01-25T00:44:51.046Z,115.63
2024-01-25T00:45:51.177Z,116.89
2024-01-25T00:46:51.107Z,117.36
2024-01-25T00:47:51.208Z,118.15
2024-01-25T00:48:51.576Z,116.74
2024-01-25T00:49:51.326Z,119.31
2024-01-25T00:50:51.299Z,117.52
2024-01-25T00:51:51.379Z,115.36
2024-01-25T00:52:51.343Z,117.11
2024-01-25T00:53:51.358Z,115.79
2024-01-25T00:54:51.370Z,116.00
2024-01-25T00:55:51.353Z,115.26
2024-01-25T00:56:51.419Z,113.11
2024-01-25T00:57:51.473Z,117.38
2024-01-25T00:58:51.490Z,113.64
2024-01-25T00:59:51.571Z,115.30
2024-01-25T01:00:51.702Z,116.49
2024-01-25T01:01:51.762Z,116.54
2024-01-25T01:02:51.594Z,114.96
2024-01-25T01:03:51.700Z,116.79
2024-01-25T01:04:51.871Z,115.15
2024-01-25T01:05:51.803Z,114.85
2024-01-25T01:06:51.881Z,117.71
2024-01-25T01:07:52.038Z,115.94
2024-01-25T01:08:51.930Z,114.25
2024-01-25T01:09:52.034Z,116.63
2024-01-25T01:10:51.967Z,112.40
2024-01-25T01:11:51.984Z,116.45
2024-01-25T01:12:52.017Z,116.42
2024-01-25T01:13:52.005Z,114.95
2024-01-25T01:14:52.023Z,117.54
2024-01-25T01:15:52.174Z,115.43
2024-01-25T01:16:52.125Z,117.28
2024-01-25T01:17:52.152Z,117.28
2024-01-25T01:18:52.317Z,114.88
2024-01-25T01:19:52.421Z,117.92
2024-01-25T01:20:52.328Z,114.96
2024-01-25T01:21:52.264Z,115.84
2024-01-25T01:22:52.325Z,113.61
2024-01-25T01:23:52.482Z,113.91
2024-01-25T01:24:52.526Z,114.13
2024-01-25T01:25:52.570Z,116.24
2024-01-25T01:26:52.561Z,115.17
2024-01-25T01:27:52.688Z,116.16
2024-01-25T01:28:52.586Z,117.76
2024-01-25T01:29:52.614Z,117.91
2024-01-25T01:30:52.684Z,114.79
2024-01-25T01:31:52.637Z,114.35
2024-01-25T01:32:52.785Z,114.03
2024-01-25T01:33:52.884Z,112.55
2024-01-25T01:34:53.036Z,113.27
2024-01-25T01:35:52.769Z,115.08
2024-01-25T01:36:53.311Z,116.10
2024-01-25T01:37:52.844Z,115.38
2024-01-25T01:38:52.850Z,116.48
2024-01-25T01:39:52.911Z,116.96
2024-01-25T01:40:52.913Z,116.93
2024-01-25T01:41:52.986Z,115.63
2024-01-25T01:42:53.028Z,114.77
2024-01-25T01:43:53.064Z,116.81
2024-01-25T01:44:53.126Z,117.14
2024-01-25T01:45:53.183Z,113.13
2024-01-25T01:46:53.198Z,115.61
2024-01-25T01:47:53.348Z,116.02
2024-01-25T01:48:53.417Z,113.57
2024-01-25T01:49:53.368Z,114.95
2024-01-25T01:50:53.491Z,114.03
2024-01-25T01:51:53.425Z,117.54
2024-01-25T01:52:53.397Z,117.08
2024-01-25T01:53:53.413Z,113.85
2024-01-25T01:54:53.446Z,115.76
2024-01-25T01:55:53.474Z,116.45
2024-01-25T01:56:53.579Z,115.69
2024-01-25T01:57:53.508Z,116.63
2024-01-25T01:58:53.526Z,117.55
2024-01-25T01:59:53.530Z,118.06
2024-01-25T02:00:53.669Z,115.42
2024-01-25T02:01:53.966Z,113.46
2024-01-25T02:02:53.651Z,116.79
2024-01-25T02:03:53.758Z,112.67
2024-01-25T02:04:53.755Z,115.26
2024-01-25T02:05:53.718Z,116.07
2024-01-25T02:06:53.758Z,113.01
2024-01-25T02:07:53.761Z,117.43
2024-01-25T02:08:53.773Z,117.95
2024-01-25T02:09:53.800Z,115.50
2024-01-25T02:10:53.789Z,116.25
2024-01-25T02:11:53.803Z,115.49
2024-01-25T02:12:53.800Z,114.72
2024-01-25T02:13:53.803Z,113.29
2024-01-25T02:14:53.814Z,113.46
2024-01-25T02:15:53.817Z,111.57
2024-01-25T02:16:53.802Z,112.70
2024-01-25T02:17:53.878Z,112.71
2024-01-25T02:18:53.928Z,114.63
2024-01-25T02:19:53.942Z,112.57
2024-01-25T02:20:53.845Z,112.20
2024-01-25T02:21:53.907Z,112.56
2024-01-25T02:22:53.906Z,114.02
2024-01-25T02:23:53.931Z,114.80
2024-01-25T02:24:53.977Z,116.40
2024-01-25T02:25:53.915Z,114.87
2024-01-25T02:26:53.943Z,115.60
2024-01-25T02:27:53.942Z,114.88
2024-01-25T02:28:55.553Z,115.79
2024-01-25T02:29:54.003Z,117.17
2024-01-25T02:30:54.085Z,115.36
2024-01-25T02:31:54.018Z,118.99
2024-01-25T02:32:54.195Z,115.08
2024-01-25T02:33:54.190Z,115.44
2024-01-25T02:34:54.210Z,113.89
2024-01-25T02:35:54.071Z,117.06
2024-01-25T02:36:54.144Z,114.72
2024-01-25T02:37:54.162Z,113.71
2024-01-25T02:38:54.114Z,116.57
2024-01-25T02:39:54.161Z,115.82
2024-01-25T02:40:54.129Z,113.78
2024-01-25T02:41:54.194Z,113.14
2024-01-25T02:42:54.191Z,117.64
2024-01-25T02:43:54.142Z,115.68
2024-01-25T02:44:54.307Z,113.15
2024-01-25T02:45:54.196Z,114.47
2024-01-25T02:46:54.180Z,116.31
2024-01-25T02:47:54.278Z,112.62
2024-01-25T02:48:54.248Z,114.65
2024-01-25T02:49:54.325Z,112.62
2024-01-25T02:50:54.180Z,114.64
2024-01-25T02:51:54.263Z,114.29
2024-01-25T02:52:54.212Z,112.14
2024-01-25T02:53:54.281Z,112.80
2024-01-25T02:54:54.199Z,114.12
2024-01-25T02:55:54.218Z,115.57
2024-01-25T02:56:54.200Z,114.48
2024-01-25T02:57:54.289Z,114.44
2024-01-25T02:58:54.254Z,114.30
2024-01-25T02:59:54.244Z,115.22
2024-01-25T03:00:54.336Z,117.54
2024-01-25T03:01:54.326Z,113.14
2024-01-25T03:02:54.296Z,116.70
2024-01-25T03:03:54.382Z,114.73
2024-01-25T03:04:54.517Z,117.31
2024-01-25T03:05:54.468Z,113.45
2024-01-25T03:06:54.390Z,116.88
2024-01-25T03:07:54.352Z,113.55
2024-01-25T03:08:54.299Z,116.49
2024-01-25T03:09:54.358Z,117.96
2024-01-25T03:10:54.330Z,117.59
2024-01-25T03:11:54.374Z,117.62
2024-01-25T03:12:54.361Z,113.65
2024-01-25T03:13:54.311Z,113.09
2024-01-25T03:14:54.356Z,116.75
2024-01-25T03:15:54.396Z,113.71
2024-01-25T03:16:54.443Z,118.07
2024-01-25T03:17:54.460Z,117.56
2024-01-25T03:18:54.451Z,114.51
2024-01-25T03:19:54.542Z,116.89
2024-01-25T03:20:54.393Z,116.50
2024-01-25T03:21:54.497Z,115.27
2024-01-25T03:22:54.386Z,114.88
2024-01-25T03:23:54.478Z,111.16
2024-01-25T03:24:54.495Z,115.22
2024-01-25T03:25:54.393Z,115.35
2024-01-25T03:26:54.421Z,115.96
2024-01-25T03:27:54.408Z,112.53
2024-01-25T03:28:54.422Z,114.15
2024-01-25T03:29:54.441Z,112.86
2024-01-25T03:30:54.486Z,115.39
2024-01-25T03:31:54.471Z,114.32
2024-01-25T03:32:54.501Z,114.24
2024-01-25T03:33:54.572Z,114.94
2024-01-25T03:34:54.541Z,113.84
2024-01-25T03:35:54.488Z,116.41
2024-01-25T03:36:54.540Z,113.94
2024-01-25T03:37:54.495Z,115.33
2024-01-25T03:38:54.525Z,117.49
2024-01-25T03:39:54.622Z,114.84
2024-01-25T03:40:54.639Z,114.21
2024-01-25T03:41:54.601Z,111.65
2024-01-25T03:43:08.470Z,112.75
2024-01-25T03:43:55.606Z,112.85
2024-01-25T03:44:54.539Z,113.51
2024-01-25T03:45:54.580Z,113.73
2024-01-25T03:46:54.547Z,114.14
2024-01-25T03:47:54.594Z,114.53
2024-01-25T03:48:54.637Z,114.90
2024-01-25T03:49:54.659Z,116.47
2024-01-25T03:50:54.572Z,118.33
2024-01-25T03:51:54.647Z,113.08
2024-01-25T03:52:54.608Z,112.40
2024-01-25T03:53:54.558Z,114.98
2024-01-25T03:54:54.595Z,114.71
2024-01-25T03:55:54.578Z,114.21
2024-01-25T03:56:54.748Z,112.81
2024-01-25T03:57:54.625Z,115.38
2024-01-25T03:58:54.587Z,115.05
2024-01-25T03:59:54.605Z,116.99
2024-01-25T04:00:54.765Z,116.91
2024-01-25T04:01:54.702Z,114.72
2024-01-25T04:02:54.624Z,117.84
2024-01-25T04:03:54.701Z,114.63
2024-01-25T04:04:54.648Z,114.83
2024-01-25T04:05:54.692Z,115.59
2024-01-25T04:06:54.621Z,116.46
2024-01-25T04:07:54.625Z,113.40
2024-01-25T04:08:54.572Z,115.71
2024-01-25T04:09:54.620Z,116.34
2024-01-25T04:10:54.626Z,116.16
2024-01-25T04:11:54.655Z,116.06
2024-01-25T04:12:56.324Z,117.17
2024-01-25T04:13:54.596Z,114.90
2024-01-25T04:14:54.597Z,115.37
2024-01-25T04:15:54.655Z,113.86
2024-01-25T04:16:54.674Z,115.96
2024-01-25T04:17:54.665Z,116.59
2024-01-25T04:18:54.727Z,116.73
2024-01-25T04:19:54.711Z,115.08
2024-01-25T04:20:54.644Z,116.46
2024-01-25T04:21:54.639Z,115.53
2024-01-25T04:22:54.613Z,115.07
2024-01-25T04:23:54.596Z,114.39
2024-01-25T04:24:54.657Z,114.13
2024-01-25T04:25:54.631Z,115.07
2024-01-25T04:26:54.625Z,114.58
2024-01-25T04:27:54.665Z,113.74
2024-01-25T04:28:54.643Z,113.73
2024-01-25T04:29:54.637Z,114.03
2024-01-25T04:30:54.609Z,115.32
2024-01-25T04:31:54.614Z,116.00
2024-01-25T04:32:54.726Z,114.34
2024-01-25T04:33:54.759Z,114.52
2024-01-25T04:34:54.725Z,112.79
2024-01-25T04:35:54.665Z,115.29
2024-01-25T04:36:54.662Z,116.02
2024-01-25T04:37:54.612Z,113.77
2024-01-25T04:38:54.613Z,113.02
2024-01-25T04:39:54.690Z,114.23
2024-01-25T04:40:54.687Z,114.54
2024-01-25T04:41:54.689Z,112.35
2024-01-25T04:43:02.070Z,50.00
2024-01-25T04:44:02.011Z,50.00
2024-01-25T04:45:01.956Z,50.00
2024-01-25T04:46:02.047Z,50.00
2024-01-25T04:47:01.991Z,50.00
2024-01-25T04:48:02.281Z,51.98
2024-01-25T04:49:02.179Z,53.96
2024-01-25T04:50:02.108Z,51.52
2024-01-25T04:51:01.969Z,53.62
2024-01-25T04:52:02.038Z,53.60
2024-01-25T04:53:03.272Z,53.11
2024-01-25T04:54:02.026Z,53.18
2024-01-25T04:55:02.108Z,50.90
2024-01-25T04:56:02.042Z,50.23
2024-01-25T04:57:02.014Z,52.22
2024-01-25T04:58:02.027Z,55.17
2024-01-25T04:59:02.039Z,54.26
2024-01-25T05:00:02.033Z,53.99
2024-01-25T05:01:02.160Z,55.28
2024-01-25T05:02:02.106Z,54.53
2024-01-25T05:03:02.055Z,57.52
2024-01-25T05:04:02.060Z,55.86
2024-01-25T05:05:02.118Z,54.33
2024-01-25T05:06:02.065Z,51.72
2024-01-25T05:07:02.107Z,50.10
2024-01-25T05:08:02.109Z,51.37
2024-01-25T05:09:02.037Z,50.68
2024-01-25T05:10:02.098Z,50.90
2024-01-25T05:11:02.104Z,50.00
2024-01-25T05:12:02.083Z,49.52
2024-01-25T05:13:02.074Z,50.00
2024-01-25T05:14:02.022Z,50.20
2024-01-25T05:15:02.095Z,51.03
2024-01-25T05:16:02.050Z,50.49
2024-01-25T05:17:02.041Z,50.00
2024-01-25T05:18:02.112Z,50.71
2024-01-25T05:19:02.262Z,50.00
2024-01-25T05:20:02.234Z,50.12
2024-01-25T05:21:02.038Z,50.71
2024-01-25T05:22:02.044Z,50.00
2024-01-25T05:23:02.029Z,50.76
2024-01-25T05:24:02.095Z,50.12
2024-01-25T05:25:02.170Z,51.48
2024-01-25T05:26:02.003Z,51.90
2024-01-25T05:27:02.064Z,50.00
2024-01-25T05:28:02.150Z,50.71
2024-01-25T05:29:02.072Z,52.59
2024-01-25T05:30:02.074Z,52.88
2024-01-25T05:31:04.323Z,53.08
2024-01-25T05:32:02.119Z,50.00
2024-01-25T05:33:02.270Z,50.00
2024-01-25T05:34:02.270Z,51.11
2024-01-25T05:35:02.341Z,53.34
2024-01-25T05:36:02.100Z,53.85
2024-01-25T05:37:02.110Z,55.92
2024-01-25T05:38:02.083Z,56.57
2024-01-25T05:39:02.072Z,58.30
2024-01-25T05:40:02.202Z,60.91
2024-01-25T05:41:02.044Z,59.33
2024-01-25T05:42:02.059Z,61.03
2024-01-25T05:43:02.093Z,65.84
2024-01-25T05:44:02.018Z,66.68
2024-01-25T05:45:02.112Z,66.91
2024-01-25T05:46:04.559Z,66.90
2024-01-25T05:47:02.087Z,66.98
2024-01-25T05:48:02.086Z,67.47
2024-01-25T05:49:02.138Z,68.36
2024-01-25T05:50:02.346Z,69.90
2024-01-25T05:51:02.044Z,72.13
2024-01-25T05:52:02.131Z,73.48
2024-01-25T05:53:02.147Z,74.04
2024-01-25T05:54:02.087Z,77.46
2024-01-25T05:55:04.341Z,76.37
2024-01-25T05:56:02.109Z,76.48
2024-01-25T05:57:02.086Z,76.60
2024-01-25T05:58:02.134Z,77.69
2024-01-25T05:59:02.095Z,80.66
2024-01-25T06:00:02.072Z,83.23
2024-01-25T06:01:02.185Z,84.94
2024-01-25T06:02:02.389Z,83.03
2024-01-25T06:03:02.093Z,85.82
2024-01-25T06:04:02.175Z,85.28
2024-01-25T06:05:02.241Z,84.01
2024-01-25T06:06:02.189Z,85.48
2024-01-25T06:07:02.297Z,88.70
2024-01-25T06:08:02.260Z,87.48
2024-01-25T06:09:11.257Z,87.38
2024-01-25T06:10:03.220Z,87.53
2024-01-25T06:11:02.183Z,87.51
2024-01-25T06:12:02.146Z,88.21
2024-01-25T06:13:02.167Z,91.30
2024-01-25T06:14:02.220Z,93.01
2024-01-25T06:15:02.104Z,92.60
2024-01-25T06:16:02.167Z,94.48
2024-01-25T06:17:02.099Z,92.70
2024-01-25T06:18:02.097Z,92.82
2024-01-25T06:19:02.167Z,94.95
2024-01-25T06:20:02.499Z,92.82
2024-01-25T06:21:02.109Z,91.89
2024-01-25T06:22:02.162Z,91.52
2024-01-25T06:23:02.125Z,92.32
2024-01-25T06:24:02.134Z,94.89
2024-01-25T06:25:02.242Z,94.19
2024-01-25T06:26:02.496Z,94.18
2024-01-25T06:27:02.094Z,92.25
2024-01-25T06:28:02.126Z,93.11
2024-01-25T06:29:02.110Z,93.91
2024-01-25T06:30:02.110Z,95.51
2024-01-25T06:31:02.168Z,92.38
2024-01-25T06:32:07.652Z,94.42
2024-01-25T06:33:03.296Z,94.47
2024-01-25T06:34:02.308Z,92.36
2024-01-25T06:35:02.290Z,89.67
2024-01-25T06:36:02.141Z,84.77
2024-01-25T06:37:02.151Z,78.89
2024-01-25T06:38:02.146Z,76.93
2024-01-25T06:39:02.112Z,69.95
2024-01-25T06:40:02.724Z,63.30
2024-01-25T06:41:02.157Z,57.17
2024-01-25T06:42:02.156Z,53.12
2024-01-25T06:43:02.256Z,50.31
2024-01-25T06:44:03.101Z,51.04
2024-01-25T06:45:02.152Z,50.08
2024-01-25T06:46:02.176Z,52.57
2024-01-25T06:47:02.194Z,53.41
2024-01-25T06:48:02.319Z,54.70
2024-01-25T06:49:02.346Z,51.98
2024-01-25T06:50:02.516Z,50.75
2024-01-25T06:51:02.695Z,52.77
2024-01-25T06:52:02.452Z,53.16
2024-01-25T06:53:02.474Z,54.15
2024-01-25T06:54:02.551Z,53.34
2024-01-25T06:55:02.649Z,55.68
2024-01-25T06:56:02.667Z,55.69
2024-01-25T06:57:02.623Z,55.37
2024-01-25T06:58:02.769Z,57.03
2024-01-25T06:59:02.713Z,58.63
2024-01-25T07:00:02.807Z,65.15
2024-01-25T07:01:03.292Z,64.25
2024-01-25T07:02:03.345Z,68.21
2024-01-25T07:03:02.802Z,72.24
2024-01-25T07:04:02.911Z,74.57
2024-01-25T07:05:03.183Z,80.14
2024-01-25T07:06:03.356Z,82.27
2024-01-25T07:07:03.060Z,84.41
2024-01-25T07:08:03.072Z,87.67
2024-01-25T07:09:03.103Z,92.25
2024-01-25T07:10:03.729Z,91.44
2024-01-25T07:11:03.326Z,93.71
2024-01-25T07:12:03.171Z,96.14
2024-01-25T07:13:03.360Z,95.47
2024-01-25T07:14:03.343Z,100.20
2024-01-25T07:15:03.402Z,104.42
2024-01-25T07:16:03.524Z,104.47
2024-01-25T07:17:03.442Z,106.14
2024-01-25T07:18:03.718Z,105.97
2024-01-25T07:19:04.297Z,110.69
2024-01-25T07:20:03.730Z,112.79
2024-01-25T07:21:03.775Z,115.98
2024-01-25T07:22:03.750Z,118.22
2024-01-25T07:23:03.693Z,120.22
2024-01-25T07:24:03.691Z,123.34
2024-01-25T07:25:03.744Z,124.41
2024-01-25T07:26:03.787Z,124.80
2024-01-25T07:27:03.691Z,126.29
2024-01-25T07:28:04.907Z,128.55
2024-01-25T07:29:03.691Z,128.86
2024-01-25T07:30:04.226Z,133.79
2024-01-25T07:31:04.825Z,132.63
2024-01-25T07:32:03.858Z,133.70
2024-01-25T07:33:04.181Z,135.38
2024-01-25T07:34:04.026Z,134.66
2024-01-25T07:35:04.208Z,133.21
2024-01-25T07:36:03.889Z,133.59
2024-01-25T07:37:03.965Z,134.23
2024-01-25T07:38:03.907Z,134.79
2024-01-25T07:39:03.954Z,140.05
2024-01-25T07:40:04.134Z,139.19
2024-01-25T07:41:03.971Z,138.18
2024-01-25T07:42:04.165Z,139.76
2024-01-25T07:43:04.258Z,137.78
2024-01-25T07:44:04.707Z,138.16
2024-01-25T07:45:04.675Z,137.48
2024-01-25T07:46:04.232Z,136.71
2024-01-25T07:47:03.954Z,135.54
2024-01-25T07:48:09.284Z,135.75
2024-01-25T07:49:05.297Z,135.81
2024-01-25T07:50:04.081Z,136.15
2024-01-25T07:51:04.265Z,135.96
2024-01-25T07:52:04.066Z,137.05
2024-01-25T07:53:03.961Z,138.21
2024-01-25T07:54:03.976Z,139.56
2024-01-25T07:55:06.171Z,137.95
2024-01-25T07:56:04.004Z,134.31
2024-01-25T07:57:04.107Z,135.39
2024-01-25T07:58:05.787Z,135.04
2024-01-25T07:59:04.786Z,133.98
2024-01-25T08:00:04.703Z,135.08
2024-01-25T08:01:04.092Z,133.80
2024-01-25T08:02:04.139Z,133.66
2024-01-25T08:03:04.311Z,134.55
2024-01-25T08:04:04.166Z,132.80
2024-01-25T08:05:04.160Z,133.61
2024-01-25T08:06:04.532Z,134.85
2024-01-25T08:07:04.074Z,135.69
2024-01-25T08:08:04.131Z,133.60
2024-01-25T08:09:04.432Z,133.46
2024-01-25T08:10:04.779Z,135.05
2024-01-25T08:11:04.427Z,134.32
2024-01-25T08:12:04.441Z,134.55
2024-01-25T08:13:07.453Z,133.59
2024-01-25T08:14:04.830Z,136.63
2024-01-25T08:15:04.364Z,136.42
2024-01-25T08:16:04.494Z,136.12
2024-01-25T08:17:05.224Z,133.49
2024-01-25T08:18:04.768Z,136.27
2024-01-25T08:19:05.016Z,135.07
2024-01-25T08:20:04.561Z,135.20
2024-01-25T08:21:04.569Z,134.75
2024-01-25T08:22:05.280Z,134.58
2024-01-25T08:23:04.390Z,135.16
2024-01-25T08:24:06.163Z,134.46
2024-01-25T08:25:04.437Z,136.64
2024-01-25T08:26:04.396Z,135.06
2024-01-25T08:27:07.728Z,133.54
2024-01-25T08:28:06.712Z,137.49
2024-01-25T08:29:04.756Z,135.36
2024-01-25T08:30:04.636Z,134.38
2024-01-25T08:31:04.696Z,128.21
2024-01-25T08:32:04.723Z,123.88
2024-01-25T08:33:06.389Z,125.28
2024-01-25T08:34:05.300Z,127.14
2024-01-25T08:35:05.012Z,127.70
2024-01-25T08:36:04.964Z,127.87
2024-01-25T08:37:05.026Z,128.14
2024-01-25T08:38:05.073Z,128.02
2024-01-25T08:39:05.266Z,128.52
2024-01-25T08:40:05.141Z,124.21
2024-01-25T08:41:05.145Z,125.71
2024-01-25T08:42:05.118Z,125.22
2024-01-25T08:43:05.218Z,128.62
2024-01-25T08:44:05.230Z,132.34
2024-01-25T08:45:05.185Z,135.40
2024-01-25T08:46:05.305Z,138.83
2024-01-25T08:47:05.188Z,141.64
2024-01-25T08:48:06.339Z,142.78
2024-01-25T08:49:05.943Z,145.52
2024-01-25T08:50:05.519Z,149.16
2024-01-25T08:51:05.706Z,147.88
2024-01-25T08:52:05.536Z,151.38
2024-01-25T08:53:05.613Z,152.23
2024-01-25T08:54:05.720Z,150.66
2024-01-25T08:55:06.314Z,151.16
2024-01-25T08:56:06.370Z,152.93
2024-01-25T08:57:05.822Z,157.17
2024-01-25T08:58:06.255Z,156.44
2024-01-25T08:59:05.964Z,152.23
2024-01-25T09:00:06.879Z,152.35
2024-01-25T09:01:06.271Z,150.12
2024-01-25T09:02:06.347Z,144.51
2024-01-25T09:03:06.741Z,148.41
2024-01-25T09:04:06.488Z,145.79
2024-01-25T09:05:06.437Z,142.67
2024-01-25T09:06:06.934Z,142.96
2024-01-25T09:07:06.668Z,140.26
2024-01-25T09:08:06.897Z,137.31
2024-01-25T09:09:06.822Z,135.99
2024-01-25T09:10:06.764Z,135.63
2024-01-25T09:11:06.774Z,135.51
2024-01-25T09:12:06.880Z,131.19
2024-01-25T09:13:07.850Z,130.21
2024-01-25T09:14:06.976Z,133.21
2024-01-25T09:15:07.006Z,128.95
2024-01-25T09:16:07.095Z,130.03
2024-01-25T09:17:07.179Z,129.59
2024-01-25T09:18:07.344Z,126.95
2024-01-25T09:19:07.708Z,129.02
2024-01-25T09:20:07.649Z,128.85
2024-01-25T09:21:07.742Z,125.56
2024-01-25T09:22:07.630Z,122.70
2024-01-25T09:23:07.575Z,121.43
2024-01-25T09:24:07.688Z,119.07
2024-01-25T09:25:09.943Z,122.59
2024-01-25T09:26:07.798Z,122.75
2024-01-25T09:27:07.771Z,125.79
2024-01-25T09:28:07.716Z,123.75
2024-01-25T09:29:07.711Z,122.62
2024-01-25T09:30:07.701Z,120.77
2024-01-25T09:31:07.875Z,117.33
2024-01-25T09:32:07.745Z,119.13
2024-01-25T09:33:07.923Z,115.34
2024-01-25T09:34:07.820Z,111.29
2024-01-25T09:35:07.756Z,106.54
2024-01-25T09:36:07.664Z,101.29
2024-01-25T09:37:07.745Z,94.64
2024-01-25T09:38:07.720Z,87.37
2024-01-25T09:39:07.753Z,82.43
2024-01-25T09:40:08.070Z,77.53
2024-01-25T09:41:07.664Z,74.24
2024-01-25T09:42:07.660Z,69.10
2024-01-25T09:43:07.711Z,64.13
2024-01-25T09:44:07.787Z,58.92
2024-01-25T09:45:08.309Z,56.09
2024-01-25T09:46:07.768Z,53.24
2024-01-25T09:47:07.703Z,51.82
2024-01-25T09:48:08.735Z,50.00
2024-01-25T09:49:08.491Z,54.10
2024-01-25T09:50:07.835Z,52.18
2024-01-25T09:51:07.776Z,50.80
2024-01-25T09:52:07.812Z,52.81
2024-01-25T09:53:07.751Z,52.38
2024-01-25T09:54:07.728Z,54.72
2024-01-25T09:55:07.781Z,51.84
2024-01-25T09:56:07.673Z,58.48
2024-01-25T09:57:08.299Z,60.41
2024-01-25T09:58:07.702Z,61.68
2024-01-25T09:59:07.775Z,66.60
2024-01-25T10:00:07.683Z,67.42
2024-01-25T10:01:07.760Z,67.62
2024-01-25T10:02:07.800Z,69.07
2024-01-25T10:03:07.695Z,68.63
2024-01-25T10:04:07.938Z,70.97
2024-01-25T10:05:09.009Z,72.70
2024-01-25T10:06:08.958Z,73.07
2024-01-25T10:07:08.369Z,73.80
2024-01-25T10:08:08.004Z,74.64
2024-01-25T10:09:07.927Z,75.96
2024-01-25T10:10:08.052Z,78.54
2024-01-25T10:11:08.269Z,77.37
2024-01-25T10:12:17.556Z,77.71
2024-01-25T10:13:09.149Z,77.98
2024-01-25T10:14:08.262Z,79.19
2024-01-25T10:15:08.019Z,82.52
2024-01-25T10:16:08.235Z,87.57
2024-01-25T10:17:08.082Z,93.97
2024-01-25T10:19:09.323Z,94.08
2024-01-25T10:20:08.230Z,94.33
2024-01-25T10:21:08.365Z,91.84
2024-01-25T10:22:08.428Z,94.38
2024-01-25T10:23:08.218Z,98.17
2024-01-25T10:24:08.472Z,96.70
2024-01-25T10:25:10.838Z,98.03
2024-01-25T10:26:08.164Z,104.07
2024-01-25T10:27:08.795Z,105.51
2024-01-25T10:28:10.890Z,109.35
2024-01-25T10:29:08.408Z,107.30
2024-01-25T10:30:08.019Z,109.58
2024-01-25T10:31:08.092Z,109.57
2024-01-25T10:32:08.122Z,106.00
2024-01-25T10:33:08.141Z,104.35
2024-01-25T10:34:08.205Z,104.11
2024-01-25T10:35:08.392Z,107.13
2024-01-25T10:36:08.066Z,107.41
2024-01-25T10:37:08.122Z,108.04
2024-01-25T10:38:08.048Z,109.74
2024-01-25T10:39:08.260Z,108.27
2024-01-25T10:40:08.219Z,112.18
2024-01-25T10:41:08.085Z,113.39
2024-01-25T10:42:08.060Z,113.36
2024-01-25T10:43:08.099Z,114.31
2024-01-25T10:44:08.292Z,113.73
2024-01-25T10:45:08.750Z,115.82
2024-01-25T10:46:08.151Z,116.87
2024-01-25T10:47:08.065Z,112.86
2024-01-25T10:48:08.134Z,114.13
2024-01-25T10:49:08.401Z,115.37
2024-01-25T10:50:08.286Z,117.09
2024-01-25T10:51:08.239Z,117.57
2024-01-25T10:52:08.136Z,117.79
2024-01-25T10:53:08.091Z,117.10
2024-01-25T10:54:08.145Z,117.86
2024-01-25T10:55:08.111Z,118.61
2024-01-25T10:56:08.348Z,118.98
2024-01-25T10:57:08.076Z,119.56
2024-01-25T10:58:08.115Z,121.79
2024-01-25T10:59:08.025Z,122.34
2024-01-25T11:00:08.040Z,120.94
2024-01-25T11:01:09.494Z,119.30
2024-01-25T11:02:08.849Z,121.02
2024-01-25T11:03:08.102Z,121.26
2024-01-25T11:04:08.191Z,121.15
2024-01-25T11:05:08.461Z,121.00
2024-01-25T11:06:08.043Z,119.82
2024-01-25T11:07:08.373Z,119.98
2024-01-25T11:08:08.064Z,120.38
2024-01-25T11:09:08.179Z,120.25
2024-01-25T11:10:08.377Z,120.94
2024-01-25T11:11:08.288Z,121.89
2024-01-25T11:12:08.370Z,121.53
2024-01-25T11:13:08.519Z,126.99
2024-01-25T11:14:08.506Z,128.93
2024-01-25T11:15:09.327Z,127.15
2024-01-25T11:16:08.665Z,130.66
2024-01-25T11:17:08.645Z,130.65
2024-01-25T11:18:08.769Z,130.55
2024-01-25T11:19:09.192Z,134.18
2024-01-25T11:20:08.898Z,132.39
2024-01-25T11:21:09.350Z,131.44
2024-01-25T11:22:08.943Z,131.91
2024-01-25T11:23:08.918Z,128.61
2024-01-25T11:24:09.081Z,130.25
2024-01-25T11:25:09.125Z,124.74
2024-01-25T11:26:09.929Z,127.83
2024-01-25T11:27:09.142Z,127.72
2024-01-25T11:28:09.315Z,126.47
2024-01-25T11:29:09.211Z,116.85
2024-01-25T11:30:09.255Z,108.00
2024-01-25T11:31:09.279Z,101.16
2024-01-25T11:32:09.335Z,93.57
2024-01-25T11:33:09.489Z,88.19
2024-01-25T11:34:09.438Z,78.61
2024-01-25T11:35:09.624Z,77.56
2024-01-25T11:36:09.842Z,74.47
2024-01-25T11:37:09.633Z,71.87
2024-01-25T11:38:09.540Z,75.39
2024-01-25T11:39:09.593Z,75.72
2024-01-25T11:40:09.718Z,78.48
2024-01-25T11:41:09.656Z,80.98
2024-01-25T11:42:10.313Z,82.99
2024-01-25T11:43:09.815Z,85.91
2024-01-25T11:44:09.851Z,87.47
2024-01-25T11:45:09.780Z,88.13
2024-01-25T11:46:09.934Z,90.60
2024-01-25T11:47:10.363Z,91.52
2024-01-25T11:48:09.918Z,93.94
2024-01-25T11:49:09.966Z,95.66
2024-01-25T11:50:10.053Z,95.40
2024-01-25T11:51:10.817Z,100.05
2024-01-25T11:52:10.358Z,97.82
2024-01-25T11:53:09.949Z,102.12
2024-01-25T11:54:10.065Z,100.74
2024-01-25T11:55:10.394Z,100.78
2024-01-25T11:56:10.220Z,102.70
2024-01-25T11:57:10.265Z,105.22
2024-01-25T11:58:10.900Z,106.88
2024-01-25T11:59:10.365Z,106.63
2024-01-25T12:00:10.449Z,109.18
2024-01-25T12:01:10.780Z,107.29
2024-01-25T12:02:11.395Z,108.60
2024-01-25T12:03:10.807Z,110.36
2024-01-25T12:04:10.902Z,112.20
2024-01-25T12:05:11.161Z,112.91
2024-01-25T12:06:11.114Z,112.69
2024-01-25T12:07:11.077Z,114.84
2024-01-25T12:08:11.097Z,114.90
2024-01-25T12:09:11.031Z,116.22
2024-01-25T12:10:11.481Z,116.16
2024-01-25T12:11:11.391Z,116.70
2024-01-25T12:12:11.167Z,120.28
2024-01-25T12:13:11.236Z,119.78
2024-01-25T12:14:11.317Z,126.82
2024-01-25T12:15:11.297Z,136.00
2024-01-25T12:16:11.473Z,140.73
2024-01-25T12:17:11.357Z,142.09
2024-01-25T12:18:11.532Z,146.10
2024-01-25T12:19:11.558Z,145.46
2024-01-25T12:20:12.513Z,148.26
2024-01-25T12:21:11.548Z,148.50
2024-01-25T12:22:11.675Z,148.25
2024-01-25T12:23:11.711Z,149.57
2024-01-25T12:24:11.758Z,153.38
2024-01-25T12:25:11.983Z,157.13
2024-01-25T12:26:12.050Z,159.01
2024-01-25T12:27:11.874Z,160.11
2024-01-25T12:28:11.945Z,162.38
2024-01-25T12:29:11.999Z,162.14
2024-01-25T12:30:11.986Z,163.19
2024-01-25T12:31:12.105Z,162.46
2024-01-25T12:32:12.173Z,161.54
2024-01-25T12:33:12.252Z,158.05
2024-01-25T12:34:12.342Z,158.25
2024-01-25T12:35:12.299Z,156.30
2024-01-25T12:36:12.681Z,154.19
2024-01-25T12:37:12.356Z,152.25